Time;durP1;ratioP1;P1;durP2;ratioP2;P2;SDS_P1;SDS_P2;PMS_P1;PMS_P2;Temp;Humidity;BMP_temperature;BMP_pressure;BME280_temperature;BME280_humidity;BME280_pressure;Samples;Min_cycle;Max_cycle;Signal;HPM_P1;HPM_P2
2021/03/13 00:00:52;;;;;;;55.80;2.20;;;5.00;1.00;;;;;;5134100;27;20298;-67
2021/03/13 00:03:19;;;;;;;56.08;2.60;;;5.00;1.00;;;;;;5134000;27;20290;-67
2021/03/13 00:05:46;;;;;;;56.30;2.83;;;5.00;1.00;;;;;;5133989;27;20225;-67
2021/03/13 00:08:15;;;;;;;55.78;2.33;;;5.00;1.00;;;;;;5122990;27;20275;-67
2021/03/13 00:10:43;;;;;;;57.10;2.75;;;5.00;1.00;;;;;;5126866;27;20210;-67
2021/03/13 00:13:11;;;;;;;56.75;3.17;;;5.00;1.00;;;;;;5125127;27;20240;-67
2021/03/13 00:15:39;;;;;;;58.20;3.50;;;5.00;1.00;;;;;;5124932;27;20593;-67
2021/03/13 00:18:06;;;;;;;57.70;3.10;;;5.10;1.00;;;;;;5126910;27;20253;-67
2021/03/13 00:20:35;;;;;;;56.65;2.78;;;5.10;1.00;;;;;;5133542;27;20565;-67
2021/03/13 00:23:02;;;;;;;57.22;2.50;;;5.10;1.00;;;;;;5133522;27;20211;-67
2021/03/13 00:25:30;;;;;;;57.22;2.85;;;5.10;1.00;;;;;;5133134;27;20191;-67
2021/03/13 00:27:57;;;;;;;57.35;2.45;;;5.20;1.00;;;;;;5133443;27;20638;-67
2021/03/13 00:30:26;;;;;;;56.90;2.65;;;5.20;1.00;;;;;;5133594;27;20198;-67
2021/03/13 00:32:54;;;;;;;56.92;2.40;;;5.30;1.00;;;;;;5133455;27;20270;-67
2021/03/13 00:35:22;;;;;;;56.10;2.33;;;5.40;1.00;;;;;;5133117;27;20318;-67
2021/03/13 00:37:50;;;;;;;56.40;2.60;;;5.40;1.00;;;;;;5133206;27;20309;-67
2021/03/13 00:40:19;;;;;;;56.15;2.47;;;5.50;1.00;;;;;;5133453;27;20293;-67
2021/03/13 00:42:46;;;;;;;58.78;2.90;;;5.50;1.00;;;;;;5133112;27;20581;-67
2021/03/13 00:45:16;;;;;;;58.25;2.67;;;5.50;1.00;;;;;;5133131;27;20294;-67
2021/03/13 00:47:44;;;;;;;56.42;2.45;;;5.50;1.00;;;;;;5133150;27;20306;-67
2021/03/13 00:50:12;;;;;;;57.35;2.40;;;5.60;1.00;;;;;;5133137;27;20551;-67
2021/03/13 00:52:38;;;;;;;55.88;2.60;;;5.60;1.00;;;;;;5132762;27;20297;-67
2021/03/13 00:55:06;;;;;;;56.25;2.53;;;5.60;1.00;;;;;;5133060;27;20282;-67
2021/03/13 00:57:33;;;;;;;56.10;2.63;;;5.60;1.00;;;;;;5133112;27;20253;-67
2021/03/13 01:00:00;;;;;;;56.45;2.60;;;5.70;1.00;;;;;;5132761;27;20210;-67
2021/03/13 01:02:27;;;;;;;57.10;2.60;;;5.70;1.00;;;;;;5132954;27;20203;-67
2021/03/13 01:04:53;;;;;;;55.95;2.55;;;5.80;1.00;;;;;;5132777;27;20665;-67
2021/03/13 01:07:19;;;;;;;57.50;2.55;;;5.80;1.00;;;;;;5132825;27;20770;-67
2021/03/13 01:09:46;;;;;;;56.47;2.50;;;5.90;1.00;;;;;;5133327;27;20274;-67
2021/03/13 01:12:12;;;;;;;56.60;3.03;;;6.00;1.00;;;;;;5132695;27;20286;-67
2021/03/13 01:14:39;;;;;;;56.55;2.63;;;6.10;1.00;;;;;;5132894;27;20295;-68
2021/03/13 01:17:06;;;;;;;56.92;2.80;;;6.10;1.00;;;;;;5132737;27;20233;-67
2021/03/13 01:19:33;;;;;;;56.15;2.80;;;6.10;1.00;;;;;;5132528;27;20247;-67
2021/03/13 01:21:59;;;;;;;56.08;2.25;;;6.10;1.00;;;;;;5132640;27;20198;-67
2021/03/13 01:24:25;;;;;;;56.28;2.40;;;6.10;1.00;;;;;;5132418;27;20566;-67
2021/03/13 01:26:52;;;;;;;56.17;2.50;;;6.00;1.00;;;;;;5133007;27;20310;-67
2021/03/13 01:29:18;;;;;;;55.83;2.20;;;6.00;1.00;;;;;;5132559;27;20237;-67
2021/03/13 01:31:44;;;;;;;56.40;2.38;;;5.90;1.00;;;;;;5132534;27;20211;-67
2021/03/13 01:34:12;;;;;;;55.90;2.20;;;5.80;1.00;;;;;;5131804;27;20569;-67
2021/03/13 01:36:38;;;;;;;56.90;2.50;;;5.80;1.00;;;;;;5132182;27;20778;-67
2021/03/13 01:39:06;;;;;;;59.85;2.90;;;5.70;1.00;;;;;;5132227;27;20619;-67
2021/03/13 01:41:33;;;;;;;56.17;2.40;;;5.60;1.00;;;;;;5132553;27;20290;-67
2021/03/13 01:43:59;;;;;;;57.00;2.60;;;5.60;1.00;;;;;;5132278;27;20297;-67
2021/03/13 01:46:26;;;;;;;56.00;2.42;;;5.50;1.00;;;;;;5132274;27;20253;-67
2021/03/13 01:48:53;;;;;;;56.28;2.60;;;5.50;1.00;;;;;;5132254;27;20246;-67
2021/03/13 01:51:20;;;;;;;56.40;2.50;;;5.50;1.00;;;;;;5132576;27;20207;-67
2021/03/13 01:53:47;;;;;;;56.78;2.45;;;5.50;1.00;;;;;;5132169;27;20550;-67
2021/03/13 01:56:14;;;;;;;55.50;2.50;;;5.40;1.00;;;;;;5132104;27;20231;-67
2021/03/13 01:58:41;;;;;;;56.10;2.33;;;5.40;1.00;;;;;;5132527;27;20206;-68
2021/03/13 02:01:07;;;;;;;55.50;2.10;;;5.40;1.00;;;;;;5132149;27;20680;-67
2021/03/13 02:03:35;;;;;;;56.08;2.53;;;5.40;1.00;;;;;;5132008;27;20302;-67
2021/03/13 02:06:01;;;;;;;55.85;2.78;;;5.30;1.00;;;;;;5132345;27;20286;-68
2021/03/13 02:08:38;;;;;;;55.90;2.33;;;5.30;1.00;;;;;;5132065;27;20203;-67
2021/03/13 02:11:11;;;;;;;56.10;2.50;;;5.30;1.00;;;;;;5132158;27;20411;-67
2021/03/13 02:13:44;;;;;;;57.75;2.90;;;5.30;1.00;;;;;;5131930;27;20714;-68
2021/03/13 02:16:21;;;;;;;55.90;2.50;;;5.30;1.00;;;;;;5124013;27;20219;-67
2021/03/13 02:18:57;;;;;;;57.08;2.70;;;5.30;1.00;;;;;;5131972;27;20255;-68
2021/03/13 02:21:28;;;;;;;56.15;2.50;;;5.40;1.00;;;;;;5132105;27;20220;-68
2021/03/13 02:24:12;;;;;;;55.97;2.70;;;5.50;1.00;;;;;;5131773;27;20213;-68
2021/03/13 02:26:49;;;;;;;57.50;2.70;;;5.70;1.00;;;;;;5131872;27;20656;-67
2021/03/13 02:29:44;;;;;;;57.35;3.25;;;5.70;1.00;;;;;;5131771;27;20226;-67
2021/03/13 02:32:17;;;;;;;60.53;3.00;;;5.80;1.00;;;;;;5118147;27;20255;-68
2021/03/13 02:34:46;;;;;;;60.03;3.30;;;5.80;1.00;;;;;;5132096;27;20256;-67
2021/03/13 02:37:18;;;;;;;56.70;2.60;;;5.90;1.00;;;;;;5135831;27;20257;-68
2021/03/13 02:39:48;;;;;;;56.10;2.55;;;5.90;1.00;;;;;;5135805;27;20206;-67
2021/03/13 02:42:15;;;;;;;57.30;3.58;;;5.90;1.00;;;;;;5136034;27;20578;-67
2021/03/13 02:44:44;;;;;;;56.17;2.50;;;5.90;1.00;;;;;;5135494;27;20295;-68
2021/03/13 02:47:12;;;;;;;57.22;2.72;;;5.90;1.00;;;;;;5135274;27;20314;-67
2021/03/13 02:49:39;;;;;;;57.05;2.70;;;5.90;1.00;;;;;;5135664;27;20616;-67
2021/03/13 02:52:07;;;;;;;60.28;3.25;;;6.00;1.00;;;;;;5135409;27;20202;-67
2021/03/13 02:54:36;;;;;;;56.90;2.80;;;6.00;1.00;;;;;;5136060;27;20234;-68
2021/03/13 02:57:05;;;;;;;57.03;2.50;;;6.00;1.00;;;;;;5135256;27;20788;-68
2021/03/13 02:59:35;;;;;;;59.53;2.90;;;6.20;1.00;;;;;;5135569;27;20730;-68
2021/03/13 03:02:02;;;;;;;58.33;2.70;;;6.20;1.00;;;;;;5135243;27;20199;-68
2021/03/13 03:04:29;;;;;;;57.45;2.90;;;6.20;1.00;;;;;;5135495;27;20289;-68
2021/03/13 03:06:58;;;;;;;57.85;2.90;;;6.30;1.00;;;;;;5135168;27;20228;-68
2021/03/13 03:09:27;;;;;;;63.92;3.88;;;6.40;1.00;;;;;;5135158;27;20229;-68
2021/03/13 03:11:55;;;;;;;58.05;2.80;;;6.40;1.00;;;;;;5135114;27;20203;-68
2021/03/13 03:14:23;;;;;;;63.03;2.75;;;6.50;1.00;;;;;;5135028;27;20294;-68
2021/03/13 03:16:54;;;;;;;57.42;2.47;;;6.40;1.00;;;;;;5135055;27;20724;-68
2021/03/13 03:19:23;;;;;;;58.05;2.75;;;6.40;1.00;;;;;;5134974;27;20203;-68
2021/03/13 03:21:50;;;;;;;60.20;2.80;;;6.40;1.00;;;;;;5134700;27;20238;-68
2021/03/13 03:24:17;;;;;;;60.00;2.90;;;6.40;1.00;;;;;;5134593;27;20290;-68
2021/03/13 03:26:43;;;;;;;57.47;2.63;;;6.50;1.00;;;;;;5134753;27;20255;-68
2021/03/13 03:29:10;;;;;;;59.65;2.75;;;6.50;1.00;;;;;;5134887;27;20286;-68
2021/03/13 03:31:38;;;;;;;56.20;2.58;;;6.50;1.00;;;;;;5134952;27;20207;-68
2021/03/13 03:34:05;;;;;;;56.28;2.45;;;6.60;1.00;;;;;;5134749;27;20214;-68
2021/03/13 03:36:32;;;;;;;55.97;2.50;;;6.60;1.00;;;;;;5137035;27;20318;-68
2021/03/13 03:39:00;;;;;;;57.53;3.10;;;6.60;1.00;;;;;;5141819;27;20676;-68
2021/03/13 03:41:29;;;;;;;58.85;2.92;;;6.60;1.00;;;;;;5145127;27;20289;-68
2021/03/13 03:44:01;;;;;;;58.75;2.70;;;6.60;1.00;;;;;;5149439;27;20199;-68
2021/03/13 03:46:29;;;;;;;60.83;2.90;;;6.60;1.00;;;;;;5150279;27;20246;-68
2021/03/13 03:48:56;;;;;;;63.50;5.05;;;6.60;1.00;;;;;;5148243;27;20295;-68
2021/03/13 03:51:28;;;;;;;58.17;2.90;;;6.70;1.00;;;;;;5146523;27;20732;-68
2021/03/13 03:53:56;;;;;;;57.90;2.70;;;6.70;1.00;;;;;;5147320;27;20243;-68
2021/03/13 03:56:25;;;;;;;58.13;3.47;;;6.70;1.00;;;;;;5148731;27;20287;-67
2021/03/13 03:58:53;;;;;;;57.10;2.50;;;6.80;1.00;;;;;;5146977;27;20202;-68
2021/03/13 04:01:22;;;;;;;57.65;2.55;;;6.80;1.00;;;;;;5146472;27;20298;-68
2021/03/13 04:03:51;;;;;;;58.55;2.90;;;6.80;1.00;;;;;;5145277;27;20249;-68
2021/03/13 04:06:18;;;;;;;56.67;2.70;;;6.80;1.00;;;;;;5146333;27;20206;-68
2021/03/13 04:08:46;;;;;;;58.13;2.60;;;6.90;1.00;;;;;;5146784;27;20231;-68
2021/03/13 04:11:15;;;;;;;57.95;2.50;;;6.90;1.00;;;;;;5146621;27;20583;-68
2021/03/13 04:13:43;;;;;;;56.17;2.15;;;7.00;1.00;;;;;;5144586;27;20287;-68
2021/03/13 04:16:11;;;;;;;59.88;2.80;;;7.10;1.00;;;;;;5138702;27;20287;-68
2021/03/13 04:18:38;;;;;;;56.13;2.55;;;7.20;1.00;;;;;;5146231;27;20226;-68
2021/03/13 04:21:05;;;;;;;57.45;2.55;;;7.20;1.00;;;;;;5143897;27;20692;-68
2021/03/13 04:23:34;;;;;;;57.70;2.42;;;7.20;1.00;;;;;;5146952;27;20229;-68
2021/03/13 04:26:01;;;;;;;58.05;2.70;;;7.20;1.00;;;;;;5146683;27;20222;-67
2021/03/13 04:28:28;;;;;;;58.50;2.60;;;7.30;1.00;;;;;;5148173;27;20259;-68
2021/03/13 04:30:55;;;;;;;58.35;2.65;;;7.20;1.00;;;;;;5147906;27;20705;-69
2021/03/13 04:33:22;;;;;;;56.13;2.28;;;7.20;1.00;;;;;;5146895;27;20263;-68
2021/03/13 04:35:52;;;;;;;60.20;2.70;;;7.20;1.00;;;;;;5147281;27;20613;-68
2021/03/13 04:38:20;;;;;;;59.05;2.33;;;7.30;1.00;;;;;;5147796;27;20260;-68
2021/03/13 04:40:47;;;;;;;56.80;2.60;;;7.20;1.00;;;;;;5144410;27;20209;-68
2021/03/13 04:43:15;;;;;;;57.03;2.70;;;7.20;1.00;;;;;;5144405;27;20270;-68
2021/03/13 04:45:43;;;;;;;57.65;2.83;;;7.20;1.00;;;;;;5145303;27;20210;-68
2021/03/13 04:48:12;;;;;;;57.80;2.67;;;7.10;1.00;;;;;;5144643;27;20230;-68
2021/03/13 04:50:38;;;;;;;57.13;2.60;;;7.10;1.00;;;;;;5141563;27;20227;-68
2021/03/13 04:53:06;;;;;;;56.45;2.42;;;7.10;1.00;;;;;;5142106;27;20290;-69
2021/03/13 04:55:32;;;;;;;57.97;2.42;;;7.20;1.00;;;;;;5138828;27;20305;-69
2021/03/13 04:57:58;;;;;;;58.38;2.70;;;7.20;1.00;;;;;;5133621;27;20280;-68
2021/03/13 05:00:25;;;;;;;59.10;2.95;;;7.20;1.00;;;;;;5133647;27;20203;-68
2021/03/13 05:02:52;;;;;;;56.17;2.75;;;7.20;1.00;;;;;;5133643;27;20207;-68
2021/03/13 05:05:19;;;;;;;56.83;2.70;;;7.20;1.00;;;;;;5133407;27;20294;-68
2021/03/13 05:07:45;;;;;;;58.00;2.60;;;7.30;1.00;;;;;;5133623;27;20231;-68
2021/03/13 05:10:12;;;;;;;56.70;2.33;;;7.20;1.00;;;;;;5133594;27;20240;-67
2021/03/13 05:12:38;;;;;;;56.63;2.30;;;7.20;1.00;;;;;;5133615;27;20203;-68
2021/03/13 05:15:08;;;;;;;57.55;2.88;;;7.20;1.00;;;;;;5136135;27;20251;-69
2021/03/13 05:17:34;;;;;;;55.97;2.28;;;7.20;1.00;;;;;;5140161;27;20310;-68
2021/03/13 05:20:02;;;;;;;57.67;2.67;;;7.30;1.00;;;;;;5140970;27;20230;-67
2021/03/13 05:22:28;;;;;;;56.35;2.90;;;7.20;1.00;;;;;;5140485;27;20208;-67
2021/03/13 05:24:55;;;;;;;56.45;2.50;;;7.20;1.00;;;;;;5138161;27;20667;-67
2021/03/13 05:27:21;;;;;;;57.92;2.60;;;7.20;1.00;;;;;;5138994;27;20256;-68
2021/03/13 05:29:47;;;;;;;59.08;2.38;;;7.20;1.00;;;;;;5138988;27;20290;-68
2021/03/13 05:32:14;;;;;;;56.55;2.40;;;7.20;1.00;;;;;;5138636;27;20203;-68
2021/03/13 05:34:40;;;;;;;56.45;2.20;;;7.20;1.00;;;;;;5138361;27;20298;-68
2021/03/13 05:37:07;;;;;;;60.00;2.55;;;7.20;1.00;;;;;;5136735;27;20251;-68
2021/03/13 05:39:33;;;;;;;55.60;2.40;;;7.20;1.00;;;;;;5138941;27;20217;-68
2021/03/13 05:42:02;;;;;;;56.78;2.45;;;7.20;1.00;;;;;;5138220;27;20234;-68
2021/03/13 05:44:29;;;;;;;56.50;2.40;;;7.20;1.00;;;;;;5135280;27;20220;-68
2021/03/13 05:46:56;;;;;;;55.80;2.20;;;7.20;1.00;;;;;;5137922;27;20250;-68
2021/03/13 05:49:23;;;;;;;58.70;2.40;;;7.20;1.00;;;;;;5140189;27;20238;-68
2021/03/13 05:51:49;;;;;;;56.95;2.30;;;7.30;1.00;;;;;;5131856;27;20249;-67
2021/03/13 05:54:17;;;;;;;57.25;2.15;;;7.30;1.00;;;;;;5137286;27;20285;-68
2021/03/13 05:56:44;;;;;;;56.88;2.50;;;7.30;1.00;;;;;;5136421;27;20307;-68
2021/03/13 05:59:12;;;;;;;57.50;2.70;;;7.40;1.00;;;;;;5137937;27;20569;-68
2021/03/13 06:01:39;;;;;;;57.55;2.70;;;7.50;1.00;;;;;;5138309;27;20294;-68
2021/03/13 06:04:06;;;;;;;56.88;2.55;;;7.50;1.00;;;;;;5139890;27;20306;-68
2021/03/13 06:06:37;;;;;;;56.38;2.30;;;7.50;1.00;;;;;;5139773;27;20255;-69
2021/03/13 06:09:05;;;;;;;58.08;2.58;;;7.60;1.00;;;;;;5133889;27;20267;-68
2021/03/13 06:11:32;;;;;;;56.95;2.30;;;7.60;1.00;;;;;;5144536;27;20303;-68
2021/03/13 06:13:58;;;;;;;56.45;2.53;;;7.70;1.00;;;;;;5145187;27;20232;-68
2021/03/13 06:16:25;;;;;;;56.45;2.70;;;7.60;1.00;;;;;;5135810;27;20314;-67
2021/03/13 06:18:53;;;;;;;59.10;2.70;;;7.70;1.00;;;;;;5136982;27;20201;-68
2021/03/13 06:21:23;;;;;;;56.65;2.53;;;7.70;1.00;;;;;;5138956;27;20382;-68
2021/03/13 06:23:58;;;;;;;57.90;2.40;;;7.80;1.00;;;;;;5137079;27;20291;-67
2021/03/13 06:26:25;;;;;;;57.35;2.50;;;7.90;1.00;;;;;;5137302;27;20350;-67
2021/03/13 06:28:54;;;;;;;58.38;2.50;;;7.90;1.00;;;;;;5137387;27;20597;-67
2021/03/13 06:31:25;;;;;;;57.67;2.42;;;7.90;1.00;;;;;;5138868;27;20633;-67
2021/03/13 06:33:52;;;;;;;58.20;2.70;;;8.00;1.00;;;;;;5138144;27;20203;-67
2021/03/13 06:36:25;;;;;;;59.40;3.20;;;8.00;1.00;;;;;;5136621;27;20231;-68
2021/03/13 06:38:52;;;;;;;60.50;2.70;;;8.00;1.00;;;;;;5135248;27;20453;-68
2021/03/13 06:41:22;;;;;;;60.28;2.75;;;8.00;1.00;;;;;;5138020;27;20706;-68
2021/03/13 06:43:50;;;;;;;60.42;2.53;;;8.10;1.00;;;;;;5138609;27;20200;-67
2021/03/13 06:46:18;;;;;;;58.20;2.50;;;8.20;1.00;;;;;;5138206;27;20206;-67
2021/03/13 06:48:46;;;;;;;58.87;2.80;;;8.30;1.00;;;;;;5138395;27;20352;-68
2021/03/13 06:51:27;;;;;;;57.87;2.60;;;8.40;1.00;;;;;;5137988;27;20447;-68
2021/03/13 06:54:08;;;;;;;57.57;2.50;;;8.50;1.00;;;;;;5137806;27;20731;-68
2021/03/13 06:56:37;;;;;;;58.70;2.58;;;8.60;1.00;;;;;;5137312;27;20524;-68
2021/03/13 06:59:29;;;;;;;56.67;2.20;;;8.70;1.00;;;;;;5137351;27;20216;-68
2021/03/13 07:02:01;;;;;;;62.03;2.63;;;8.70;1.00;;;;;;5139829;27;20888;-68
2021/03/13 07:04:32;;;;;;;57.10;2.30;;;8.80;1.00;;;;;;5139076;27;20501;-68
2021/03/13 07:06:59;;;;;;;57.47;3.10;;;8.90;1.00;;;;;;5137626;27;20553;-69
2021/03/13 07:09:45;;;;;;;57.67;2.70;;;8.90;1.00;;;;;;5138992;27;20524;-68
2021/03/13 07:12:29;;;;;;;55.90;2.73;;;9.00;1.00;;;;;;5137993;27;20441;-69
2021/03/13 07:14:57;;;;;;;56.77;2.60;;;9.00;1.00;;;;;;5138200;27;20485;-68
2021/03/13 07:17:25;;;;;;;59.20;2.50;;;9.20;1.00;;;;;;5138692;27;20470;-68
2021/03/13 07:19:52;;;;;;;59.20;2.30;;;9.30;1.00;;;;;;5138983;27;20489;-68
2021/03/13 07:22:18;;;;;;;56.97;2.17;;;9.40;1.00;;;;;;5137691;27;20477;-68
2021/03/13 07:24:45;;;;;;;57.00;2.37;;;9.60;1.00;;;;;;5140787;27;20527;-68
2021/03/13 07:27:16;;;;;;;57.40;2.10;;;9.60;1.00;;;;;;5141688;27;20900;-67
2021/03/13 07:29:45;;;;;;;57.40;2.40;;;9.60;1.00;;;;;;5140323;27;20851;-67
2021/03/13 07:32:15;;;;;;;58.10;2.83;;;9.60;1.00;;;;;;5139613;27;20946;-67
2021/03/13 07:34:43;;;;;;;56.20;2.30;;;9.60;1.00;;;;;;5139123;27;20450;-67
2021/03/13 07:37:16;;;;;;;58.80;2.70;;;9.60;1.00;;;;;;5138764;27;20496;-67
2021/03/13 07:39:42;;;;;;;56.87;2.40;;;9.70;1.00;;;;;;5144633;27;20447;-67
2021/03/13 07:42:14;;;;;;;55.97;2.50;;;9.70;1.00;;;;;;5142874;27;20447;-67
2021/03/13 07:44:41;;;;;;;55.90;2.17;;;9.80;1.00;;;;;;5142624;27;20520;-68
2021/03/13 07:47:11;;;;;;;56.97;2.50;;;9.80;1.00;;;;;;5141270;27;20506;-68
2021/03/13 07:49:38;;;;;;;57.87;2.40;;;9.90;1.00;;;;;;5143362;27;20971;-68
2021/03/13 07:52:08;;;;;;;57.40;2.57;;;10.10;1.00;;;;;;5144401;27;20440;-68
2021/03/13 07:54:38;;;;;;;56.20;2.60;;;10.20;1.00;;;;;;5145394;27;20483;-68
2021/03/13 07:57:06;;;;;;;56.67;2.30;;;10.30;1.00;;;;;;5146272;27;20923;-68
2021/03/13 07:59:46;;;;;;;57.40;2.67;;;10.50;1.00;;;;;;5146227;27;20459;-68
2021/03/13 08:02:41;;;;;;;57.97;1.97;;;10.70;1.00;;;;;;5145299;27;20492;-69
2021/03/13 08:05:10;;;;;;;55.67;2.20;;;10.80;1.00;;;;;;5138102;27;20447;-68
2021/03/13 08:07:58;;;;;;;56.97;2.50;;;10.80;1.00;;;;;;5142167;27;20518;-68
2021/03/13 08:10:52;;;;;;;56.67;2.20;;;10.80;1.00;;;;;;5142730;27;20862;-68
2021/03/13 08:13:51;;;;;;;56.60;2.40;;;10.70;1.00;;;;;;5139102;27;20531;-68
2021/03/13 08:16:32;;;;;;;57.00;2.47;;;10.60;1.00;;;;;;5135621;27;20515;-68
2021/03/13 08:18:58;;;;;;;56.40;2.80;;;10.60;1.00;;;;;;5135533;27;20534;-68
2021/03/13 08:21:41;;;;;;;55.80;2.10;;;10.50;1.00;;;;;;5138392;27;20488;-68
2021/03/13 08:24:09;;;;;;;55.90;2.27;;;10.50;1.00;;;;;;5127957;27;20873;-68
2021/03/13 08:27:00;;;;;;;56.57;2.30;;;10.50;1.00;;;;;;5126428;27;20492;-68
2021/03/13 08:29:52;;;;;;;57.70;2.47;;;10.50;1.00;;;;;;5128872;27;20994;-68
2021/03/13 08:32:38;;;;;;;56.60;2.30;;;10.50;1.00;;;;;;5124994;27;20461;-67
2021/03/13 08:35:07;;;;;;;58.73;2.53;;;10.40;1.00;;;;;;5124539;27;20574;-67
2021/03/13 08:37:47;;;;;;;55.40;2.10;;;10.50;1.00;;;;;;5127673;27;20483;-67
2021/03/13 08:40:25;;;;;;;55.87;2.13;;;10.50;1.00;;;;;;5126574;27;20852;-68
2021/03/13 08:42:51;;;;;;;55.50;2.20;;;10.60;1.00;;;;;;5124890;27;20530;-68
2021/03/13 08:45:20;;;;;;;56.30;2.50;;;10.70;1.00;;;;;;5124754;27;20448;-68
2021/03/13 08:47:51;;;;;;;57.23;2.50;;;10.70;1.00;;;;;;5126458;27;20547;-68
2021/03/13 08:50:51;;;;;;;55.90;2.20;;;10.90;1.00;;;;;;5121658;27;20544;-68
2021/03/13 08:53:38;;;;;;;56.97;2.37;;;11.00;1.00;;;;;;5123260;27;20557;-68
2021/03/13 08:56:36;;;;;;;55.50;2.10;;;11.10;1.00;;;;;;5117523;27;20493;-68
2021/03/13 08:59:13;;;;;;;55.87;2.00;;;11.10;1.00;;;;;;5126276;27;20493;-68
2021/03/13 09:01:40;;;;;;;56.50;2.40;;;11.10;1.00;;;;;;5129613;27;20451;-68
2021/03/13 09:04:06;;;;;;;55.70;2.50;;;11.10;1.00;;;;;;5131689;27;20451;-68
2021/03/13 09:06:33;;;;;;;56.47;2.40;;;11.10;1.00;;;;;;5130421;27;20477;-68
2021/03/13 09:09:15;;;;;;;56.63;2.37;;;11.10;1.00;;;;;;5124995;27;20532;-68
2021/03/13 09:11:42;;;;;;;55.70;2.20;;;11.20;1.00;;;;;;5119656;27;20461;-68
2021/03/13 09:14:10;;;;;;;57.10;2.50;;;11.20;1.00;;;;;;5126552;27;20948;-68
2021/03/13 09:16:39;;;;;;;55.97;2.20;;;11.20;1.00;;;;;;5126399;27;20483;-67
2021/03/13 09:19:07;;;;;;;57.60;2.60;;;11.30;1.00;;;;;;5120103;27;20458;-67
2021/03/13 09:21:48;;;;;;;56.80;2.37;;;11.40;1.00;;;;;;5132688;27;20519;-67
2021/03/13 09:24:16;;;;;;;56.07;2.33;;;11.40;1.00;;;;;;5125902;27;20452;-67
2021/03/13 09:26:47;;;;;;;56.90;2.50;;;11.50;1.00;;;;;;5132693;27;20516;-67
2021/03/13 09:29:13;;;;;;;56.40;2.27;;;11.60;1.00;;;;;;5132346;27;20821;-67
2021/03/13 09:31:39;;;;;;;56.00;2.30;;;11.60;1.00;;;;;;5132900;27;20455;-67
2021/03/13 09:34:13;;;;;;;56.00;2.40;;;11.60;1.00;;;;;;5132653;27;20469;-67
2021/03/13 09:36:40;;;;;;;55.70;2.20;;;11.70;1.00;;;;;;5132116;27;21039;-67
2021/03/13 09:39:06;;;;;;;56.67;2.30;;;11.80;1.00;;;;;;5132470;27;20483;-67
2021/03/13 09:41:32;;;;;;;55.60;2.60;;;11.80;1.00;;;;;;5132450;27;20492;-67
2021/03/13 09:44:00;;;;;;;56.03;2.30;;;11.80;1.00;;;;;;5133732;27;20862;-67
2021/03/13 09:46:30;;;;;;;56.53;2.10;;;11.80;1.00;;;;;;5137071;27;20460;-67
2021/03/13 09:48:56;;;;;;;55.67;2.00;;;11.80;1.00;;;;;;5136729;27;20455;-67
2021/03/13 09:51:23;;;;;;;57.30;2.30;;;11.80;1.00;;;;;;5136747;27;20455;-66
2021/03/13 09:53:49;;;;;;;57.40;2.30;;;11.90;1.00;;;;;;5135700;27;20866;-66
2021/03/13 09:56:15;;;;;;;55.20;2.10;;;11.90;1.00;;;;;;5136230;27;21078;-66
2021/03/13 09:58:42;;;;;;;56.73;2.50;;;12.00;1.00;;;;;;5136210;27;20908;-66
2021/03/13 10:01:12;;;;;;;55.60;2.03;;;12.10;1.00;;;;;;5136546;27;20448;-67
2021/03/13 10:03:38;;;;;;;57.30;2.40;;;12.10;1.00;;;;;;5136573;27;20526;-66
2021/03/13 10:06:05;;;;;;;57.07;2.20;;;12.10;1.00;;;;;;5136375;27;20440;-66
2021/03/13 10:08:35;;;;;;;57.20;2.03;;;12.10;1.00;;;;;;5136316;27;20440;-67
2021/03/13 10:11:03;;;;;;;59.07;2.37;;;12.10;1.00;;;;;;5136425;27;20717;-67
2021/03/13 10:13:30;;;;;;;55.70;2.20;;;12.00;1.00;;;;;;5136532;27;20447;-66
2021/03/13 10:15:57;;;;;;;55.87;2.20;;;12.00;1.00;;;;;;5136154;27;20532;-67
2021/03/13 10:18:28;;;;;;;55.60;2.00;;;12.00;1.00;;;;;;5136224;27;20868;-67
2021/03/13 10:20:57;;;;;;;58.07;2.90;;;11.90;1.00;;;;;;5136437;27;20872;-67
2021/03/13 10:23:29;;;;;;;57.17;3.30;;;11.90;1.00;;;;;;5135806;27;20443;-67
2021/03/13 10:25:57;;;;;;;55.70;2.20;;;11.90;1.00;;;;;;5136365;27;20444;-67
2021/03/13 10:28:27;;;;;;;55.77;2.47;;;11.90;1.00;;;;;;5136099;27;20467;-67
2021/03/13 10:31:05;;;;;;;56.40;3.03;;;11.90;1.00;;;;;;5136280;27;20601;-67
2021/03/13 10:33:34;;;;;;;55.87;2.10;;;11.90;1.00;;;;;;5135887;27;20479;-66
2021/03/13 10:36:01;;;;;;;56.87;2.10;;;11.90;1.00;;;;;;5135714;27;20524;-66
2021/03/13 10:38:27;;;;;;;57.83;2.67;;;11.90;1.00;;;;;;5135931;27;20876;-66
2021/03/13 10:40:54;;;;;;;59.00;2.30;;;12.00;1.00;;;;;;5135789;27;20452;-66
2021/03/13 10:43:29;;;;;;;56.00;2.20;;;12.00;1.00;;;;;;5135721;27;20817;-66
2021/03/13 10:46:17;;;;;;;56.07;2.30;;;12.10;1.00;;;;;;5135895;27;20446;-66
2021/03/13 10:49:01;;;;;;;56.30;2.30;;;12.10;1.00;;;;;;5131140;27;20456;-66
2021/03/13 10:51:29;;;;;;;56.53;2.40;;;12.10;1.00;;;;;;5135729;27;20523;-66
2021/03/13 10:53:57;;;;;;;56.47;2.20;;;12.10;1.00;;;;;;5135595;27;20469;-67
2021/03/13 10:56:24;;;;;;;55.77;2.10;;;12.10;1.00;;;;;;5134406;27;20487;-67
2021/03/13 10:58:52;;;;;;;55.57;2.20;;;12.10;1.00;;;;;;5135363;27;20459;-66
2021/03/13 11:01:19;;;;;;;56.50;2.13;;;12.10;1.00;;;;;;5135566;27;20535;-67
2021/03/13 11:03:47;;;;;;;55.53;2.10;;;12.10;1.00;;;;;;5135360;27;20476;-67
2021/03/13 11:06:25;;;;;;;55.70;2.10;;;12.10;1.00;;;;;;5135323;27;20865;-67
2021/03/13 11:08:52;;;;;;;55.53;2.10;;;12.10;1.00;;;;;;5129070;27;20461;-66
2021/03/13 11:11:19;;;;;;;55.17;1.80;;;12.10;1.00;;;;;;5130173;27;20828;-66
2021/03/13 11:13:45;;;;;;;57.50;2.00;;;12.10;1.00;;;;;;5127926;27;20445;-66
2021/03/13 11:16:11;;;;;;;55.67;2.03;;;12.10;1.00;;;;;;5129745;27;20536;-66
2021/03/13 11:18:38;;;;;;;55.00;1.97;;;12.10;1.00;;;;;;5130221;27;21000;-66
2021/03/13 11:21:05;;;;;;;58.07;2.17;;;12.10;1.00;;;;;;5126255;27;20548;-66
2021/03/13 11:23:32;;;;;;;57.87;2.03;;;12.20;1.00;;;;;;5132765;27;20828;-66
2021/03/13 11:25:59;;;;;;;55.80;2.10;;;12.20;1.00;;;;;;5134248;27;20863;-66
2021/03/13 11:28:25;;;;;;;55.70;2.00;;;12.20;1.00;;;;;;5134686;27;20532;-66
2021/03/13 11:30:51;;;;;;;55.40;2.40;;;12.20;1.00;;;;;;5134706;27;20479;-66
2021/03/13 11:33:18;;;;;;;58.90;2.30;;;12.30;1.00;;;;;;5134616;27;20868;-66
2021/03/13 11:35:45;;;;;;;56.37;2.30;;;12.50;1.00;;;;;;5134478;27;20512;-66
2021/03/13 11:38:11;;;;;;;56.13;2.33;;;12.50;1.00;;;;;;5132753;27;20474;-66
2021/03/13 11:40:40;;;;;;;55.03;1.90;;;12.60;1.00;;;;;;5131983;27;20441;-67
2021/03/13 11:43:06;;;;;;;55.60;2.13;;;12.70;1.00;;;;;;5126365;27;20457;-66
2021/03/13 11:45:32;;;;;;;55.70;2.30;;;12.60;1.00;;;;;;5134397;27;20482;-66
2021/03/13 11:47:59;;;;;;;57.00;2.40;;;12.60;1.00;;;;;;5134335;27;20506;-66
2021/03/13 11:50:27;;;;;;;56.67;2.40;;;12.70;1.00;;;;;;5134259;27;20551;-66
2021/03/13 11:52:55;;;;;;;56.57;2.73;;;12.80;1.00;;;;;;5133960;27;20736;-66
2021/03/13 11:55:22;;;;;;;56.97;2.40;;;12.80;1.00;;;;;;5134366;27;20459;-66
2021/03/13 11:57:49;;;;;;;56.20;2.37;;;12.80;1.00;;;;;;5134299;27;20466;-67
2021/03/13 12:00:17;;;;;;;56.10;2.30;;;12.90;1.00;;;;;;5134291;27;20539;-67
2021/03/13 12:02:43;;;;;;;57.00;2.80;;;12.90;1.00;;;;;;5134120;27;20445;-67
2021/03/13 12:05:10;;;;;;;58.37;2.50;;;12.90;1.00;;;;;;5134060;27;20538;-67
2021/03/13 12:07:39;;;;;;;58.43;2.50;;;12.90;1.00;;;;;;5129774;27;20479;-67
2021/03/13 12:10:07;;;;;;;55.70;2.20;;;12.90;1.00;;;;;;5133890;27;20459;-67
2021/03/13 12:12:33;;;;;;;57.50;2.70;;;12.90;1.00;;;;;;5133626;27;20447;-67
2021/03/13 12:15:01;;;;;;;59.10;2.40;;;12.90;1.00;;;;;;5133698;27;20441;-66
2021/03/13 12:17:27;;;;;;;57.10;2.70;;;12.90;1.00;;;;;;5133685;27;20519;-67
2021/03/13 12:19:53;;;;;;;55.90;2.40;;;12.90;1.00;;;;;;5133675;27;20694;-66
2021/03/13 12:22:21;;;;;;;57.47;2.37;;;12.90;1.00;;;;;;5133970;27;20448;-67
2021/03/13 12:24:48;;;;;;;59.40;3.13;;;13.00;1.00;;;;;;5133025;27;20459;-67
2021/03/13 12:27:14;;;;;;;55.80;2.30;;;13.00;1.00;;;;;;5133700;27;20496;-67
2021/03/13 12:29:41;;;;;;;55.50;2.00;;;12.90;1.00;;;;;;5127413;27;20570;-67
2021/03/13 12:32:08;;;;;;;57.13;2.47;;;13.00;1.00;;;;;;5133388;27;20479;-67
2021/03/13 12:34:34;;;;;;;56.53;2.23;;;13.00;1.00;;;;;;5133180;27;20519;-66
2021/03/13 12:37:00;;;;;;;56.47;2.20;;;13.00;1.00;;;;;;5133179;27;20480;-66
2021/03/13 12:39:27;;;;;;;57.30;2.20;;;12.90;1.00;;;;;;5133403;27;20959;-67
2021/03/13 12:41:53;;;;;;;57.70;2.40;;;12.90;1.00;;;;;;5133274;27;20444;-67
2021/03/13 12:44:20;;;;;;;55.80;2.20;;;13.20;1.00;;;;;;5133245;27;20444;-67
2021/03/13 12:46:46;;;;;;;55.77;2.00;;;13.40;1.00;;;;;;5128221;27;20480;-67
2021/03/13 12:49:13;;;;;;;55.87;2.07;;;13.50;1.00;;;;;;5129795;27;20491;-66
2021/03/13 12:51:39;;;;;;;58.67;2.50;;;13.60;1.00;;;;;;5132434;27;21143;-66
2021/03/13 12:54:06;;;;;;;55.30;2.00;;;13.40;1.00;;;;;;5132819;27;20578;-66
2021/03/13 12:56:32;;;;;;;56.40;2.10;;;13.20;1.00;;;;;;5132901;27;21067;-66
2021/03/13 12:58:59;;;;;;;57.13;2.30;;;13.00;1.00;;;;;;5133002;27;20472;-67
2021/03/13 13:01:25;;;;;;;55.40;2.00;;;12.80;1.00;;;;;;5132961;27;20873;-67
2021/03/13 13:03:55;;;;;;;57.87;2.23;;;12.50;1.00;;;;;;5132767;27;20440;-66